Time;durP1;ratioP1;P1;durP2;ratioP2;P2;SDS_P1;SDS_P2;PMS_P1;PMS_P2;Temp;Humidity;BMP_temperature;BMP_pressure;BME280_temperature;BME280_humidity;BME280_pressure;Samples;Min_cycle;Max_cycle;Signal;HPM_P1;HPM_P2
2021/12/20 00:01:39;;;;;;;;;;;3.80;97.60;;;;;;4985688;28;20260;-68
2021/12/20 00:04:05;;;;;;;;;;;3.90;97.60;;;;;;4985728;28;19906;-68
2021/12/20 00:06:31;;;;;;;;;;;4.00;97.30;;;;;;4985421;28;19945;-68
2021/12/20 00:08:56;;;;;;;;;;;4.00;97.20;;;;;;4984660;28;20185;-68
2021/12/20 00:11:22;;;;;;;;;;;4.00;97.20;;;;;;4985839;28;19920;-69
2021/12/20 00:13:47;;;;;;;;;;;4.10;97.20;;;;;;4985092;28;20067;-68
2021/12/20 00:16:13;;;;;;;;;;;4.00;97.10;;;;;;4985307;28;19973;-68
2021/12/20 00:18:39;;;;;;;;;;;4.00;97.10;;;;;;4985488;28;19906;-68
2021/12/20 00:21:04;;;;;;;;;;;4.00;97.20;;;;;;4985300;28;19910;-67
2021/12/20 00:23:30;;;;;;;;;;;3.90;97.40;;;;;;4985288;28;19910;-68
2021/12/20 00:25:56;;;;;;;;;;;3.90;97.40;;;;;;4984697;28;19905;-68
2021/12/20 00:28:21;;;;;;;;;;;3.90;97.50;;;;;;4985468;28;19913;-68
2021/12/20 00:30:47;;;;;;;;;;;3.90;97.50;;;;;;4985650;28;19906;-68
2021/12/20 00:33:13;;;;;;;;;;;4.00;97.60;;;;;;4985067;28;19914;-68
2021/12/20 00:35:39;;;;;;;;;;;4.00;97.60;;;;;;4984908;28;19906;-68
2021/12/20 00:40:50;;;;;;;;;;;4.10;97.60;;;;;;4985086;28;19945;-68
2021/12/20 00:43:16;;;;;;;;;;;4.10;97.50;;;;;;4985178;28;19906;-68
2021/12/20 00:45:42;;;;;;;;;;;4.10;97.40;;;;;;4983543;28;19947;-68
2021/12/20 00:48:07;;;;;;;;;;;4.10;97.50;;;;;;4984901;28;19945;-69
2021/12/20 00:50:33;;;;;;;;;;;4.10;97.30;;;;;;4984869;28;19945;-70
2021/12/20 00:52:59;;;;;;;;;;;4.20;97.30;;;;;;4984666;28;19906;-69
2021/12/20 00:55:26;;;;;;;;;;;4.20;96.90;;;;;;4983463;28;20256;-69
2021/12/20 00:57:52;;;;;;;;;;;4.20;96.90;;;;;;4983730;28;19914;-69
2021/12/20 01:00:24;;;;;;;;;;;4.20;96.80;;;;;;4984819;28;19913;-69
2021/12/20 01:02:50;;;;;;;;;;;4.20;96.80;;;;;;4984655;28;19906;-69
2021/12/20 01:05:16;;;;;;;;;;;4.20;97.00;;;;;;4984546;28;20090;-70
2021/12/20 01:07:41;;;;;;;;;;;4.20;97.00;;;;;;4984171;28;19913;-68
2021/12/20 01:10:09;;;;;;;;;;;4.20;97.00;;;;;;4965134;28;20146;-69
2021/12/20 01:12:43;;;;;;;;;;;4.30;96.90;;;;;;4965375;28;19906;-69
2021/12/20 01:15:10;;;;;;;;;;;4.30;96.90;;;;;;4965183;28;19906;-69
2021/12/20 01:17:36;;;;;;;;;;;4.40;96.80;;;;;;4965440;28;19981;-68
2021/12/20 01:20:04;;;;;;;;;;;4.40;96.90;;;;;;4965231;28;19946;-69
2021/12/20 01:22:29;;;;;;;;;;;4.30;96.80;;;;;;4965308;28;19946;-69
2021/12/20 01:24:55;;;;;;;;;;;4.30;96.70;;;;;;4962702;28;19906;-68
2021/12/20 01:27:21;;;;;;;;;;;4.30;96.80;;;;;;4964722;28;19977;-68
2021/12/20 01:29:46;;;;;;;;;;;4.40;96.60;;;;;;4965230;28;19915;-69
2021/12/20 01:32:12;;;;;;;;;;;4.40;96.60;;;;;;4965099;28;20265;-69
2021/12/20 01:34:38;;;;;;;;;;;4.30;96.70;;;;;;4964809;28;20075;-68
2021/12/20 01:37:04;;;;;;;;;;;4.40;96.60;;;;;;4964942;28;19957;-69
2021/12/20 01:39:29;;;;;;;;;;;4.40;96.70;;;;;;4978620;28;19913;-69
2021/12/20 01:41:55;;;;;;;;;;;4.40;97.00;;;;;;4983709;28;19910;-68
2021/12/20 01:44:21;;;;;;;;;;;4.50;96.60;;;;;;4983626;28;19913;-69
2021/12/20 01:46:47;;;;;;;;;;;4.50;96.40;;;;;;4983707;28;20033;-68
2021/12/20 01:49:16;;;;;;;;;;;4.50;96.30;;;;;;4982681;28;19906;-69
2021/12/20 01:51:51;;;;;;;;;;;4.60;96.10;;;;;;4983750;28;19906;-68
2021/12/20 01:54:17;;;;;;;;;;;4.60;96.10;;;;;;4983437;28;20000;-69
2021/12/20 01:56:44;;;;;;;;;;;4.50;95.90;;;;;;4983671;28;20105;-69
2021/12/20 01:59:10;;;;;;;;;;;4.50;96.00;;;;;;4982576;28;19906;-69
2021/12/20 02:01:36;;;;;;;;;;;4.50;96.00;;;;;;4982487;28;19964;-69
2021/12/20 02:04:08;;;;;;;;;;;4.50;96.20;;;;;;4983724;28;20213;-69
2021/12/20 02:06:37;;;;;;;;;;;4.60;96.10;;;;;;4983468;28;19906;-70
2021/12/20 02:09:07;;;;;;;;;;;4.60;95.80;;;;;;4982743;28;20138;-69
2021/12/20 02:11:33;;;;;;;;;;;4.60;95.90;;;;;;4983481;28;20223;-69
2021/12/20 02:13:59;;;;;;;;;;;4.60;95.60;;;;;;4983590;28;19906;-69
2021/12/20 02:16:24;;;;;;;;;;;4.50;95.70;;;;;;4983202;28;19948;-69
2021/12/20 02:18:50;;;;;;;;;;;4.50;95.90;;;;;;4983519;28;19906;-69
2021/12/20 02:21:16;;;;;;;;;;;4.50;95.80;;;;;;4983348;28;19913;-69
2021/12/20 02:23:42;;;;;;;;;;;4.40;95.90;;;;;;4983258;28;19914;-69
2021/12/20 02:26:11;;;;;;;;;;;4.50;95.80;;;;;;4982787;28;20201;-69
2021/12/20 02:28:41;;;;;;;;;;;4.50;95.90;;;;;;4983292;28;20216;-69
2021/12/20 02:39:15;;;;;;;;;;;4.40;96.00;;;;;;4986881;28;19936;-69
2021/12/20 02:41:41;;;;;;;;;;;4.40;95.90;;;;;;4985811;28;19909;-69
2021/12/20 02:44:15;;;;;;;;;;;4.40;95.90;;;;;;4987180;28;19985;-69
2021/12/20 02:49:06;;;;;;;;;;;4.50;95.80;;;;;;4987122;28;20109;-69
2021/12/20 02:51:32;;;;;;;;;;;4.40;95.80;;;;;;4985805;28;19913;-69
2021/12/20 02:53:59;;;;;;;;;;;4.50;95.90;;;;;;4986832;28;19978;-69
2021/12/20 02:56:24;;;;;;;;;;;4.50;95.70;;;;;;4986519;28;19918;-69
2021/12/20 02:58:50;;;;;;;;;;;4.50;95.70;;;;;;4985616;28;19972;-68
2021/12/20 03:01:16;;;;;;;;;;;4.50;95.80;;;;;;4986631;28;19906;-68
2021/12/20 03:03:42;;;;;;;;;;;4.40;95.80;;;;;;4986639;28;20263;-68
2021/12/20 03:06:18;;;;;;;;;;;4.40;95.90;;;;;;4986147;28;19937;-68
2021/12/20 03:08:46;;;;;;;;;;;4.40;96.00;;;;;;4985446;28;19984;-68
2021/12/20 03:11:11;;;;;;;;;;;4.40;95.90;;;;;;4986686;28;19937;-68
2021/12/20 03:13:37;;;;;;;;;;;4.40;95.90;;;;;;4986542;28;19906;-69
2021/12/20 03:16:04;;;;;;;;;;;4.40;95.90;;;;;;4986162;28;19906;-68
2021/12/20 03:18:29;;;;;;;;;;;4.30;95.90;;;;;;4986577;28;19914;-69
2021/12/20 03:20:55;;;;;;;;;;;4.30;96.00;;;;;;4986363;28;20104;-69
2021/12/20 03:23:21;;;;;;;;;;;4.20;96.10;;;;;;4986066;28;19905;-69
2021/12/20 03:25:47;;;;;;;;;;;4.20;96.10;;;;;;4985758;28;19906;-69
2021/12/20 03:28:12;;;;;;;;;;;4.20;96.30;;;;;;4986204;28;19929;-68
2021/12/20 03:30:38;;;;;;;;;;;4.20;96.20;;;;;;4986203;28;19944;-69
2021/12/20 03:33:04;;;;;;;;;;;4.20;96.30;;;;;;4986140;28;19914;-69
2021/12/20 03:35:29;;;;;;;;;;;4.10;96.40;;;;;;4985883;28;19913;-69
2021/12/20 03:37:56;;;;;;;;;;;4.20;96.40;;;;;;4985907;28;19925;-68
2021/12/20 03:40:21;;;;;;;;;;;4.20;96.40;;;;;;4985980;28;19906;-68
2021/12/20 03:42:47;;;;;;;;;;;4.20;96.30;;;;;;4985886;28;19916;-69
2021/12/20 03:45:14;;;;;;;;;;;4.20;96.10;;;;;;4985722;28;19914;-69
2021/12/20 03:47:40;;;;;;;;;;;4.20;96.30;;;;;;4985774;28;19913;-69
2021/12/20 03:50:07;;;;;;;;;;;4.20;96.50;;;;;;4985059;28;19906;-69
2021/12/20 03:52:33;;;;;;;;;;;4.20;96.40;;;;;;4984993;28;19913;-69
2021/12/20 03:54:59;;;;;;;;;;;4.20;96.60;;;;;;4985267;28;19914;-69
2021/12/20 03:57:25;;;;;;;;;;;4.10;96.70;;;;;;4985641;28;19941;-69
2021/12/20 03:59:53;;;;;;;;;;;4.10;96.80;;;;;;4985637;28;19913;-69
2021/12/20 04:02:20;;;;;;;;;;;4.10;96.80;;;;;;4985520;28;19906;-69
2021/12/20 04:04:46;;;;;;;;;;;4.20;96.80;;;;;;4984198;28;19906;-69
2021/12/20 04:07:12;;;;;;;;;;;4.10;96.70;;;;;;4985503;28;20312;-69
2021/12/20 04:09:37;;;;;;;;;;;4.10;96.80;;;;;;4984529;28;19941;-69
2021/12/20 04:12:03;;;;;;;;;;;4.00;96.70;;;;;;4985347;28;19912;-69
2021/12/20 04:14:29;;;;;;;;;;;4.10;96.80;;;;;;4985112;28;19985;-69
2021/12/20 04:16:54;;;;;;;;;;;4.00;96.80;;;;;;4985242;28;19917;-69
2021/12/20 04:19:20;;;;;;;;;;;4.00;96.90;;;;;;4985314;28;20140;-68
2021/12/20 04:21:46;;;;;;;;;;;4.00;96.80;;;;;;4985129;28;19914;-69
2021/12/20 04:24:11;;;;;;;;;;;4.00;96.70;;;;;;4984786;28;19913;-67
2021/12/20 04:26:37;;;;;;;;;;;3.90;96.80;;;;;;4985088;28;19906;-67
2021/12/20 04:29:03;;;;;;;;;;;3.80;97.00;;;;;;4985091;28;20090;-67
2021/12/20 04:31:29;;;;;;;;;;;3.70;97.10;;;;;;4985034;28;19946;-67
2021/12/20 04:33:54;;;;;;;;;;;3.60;97.20;;;;;;4984995;28;19936;-67
2021/12/20 04:36:20;;;;;;;;;;;3.60;97.30;;;;;;4984527;28;19921;-67
2021/12/20 04:38:46;;;;;;;;;;;3.50;97.40;;;;;;4984608;28;19906;-67
2021/12/20 04:41:12;;;;;;;;;;;3.50;97.50;;;;;;4983616;28;19914;-67
2021/12/20 04:43:38;;;;;;;;;;;3.40;97.60;;;;;;4984825;28;20282;-67
2021/12/20 04:46:03;;;;;;;;;;;3.40;97.80;;;;;;4985057;28;20132;-67
2021/12/20 04:48:29;;;;;;;;;;;3.30;97.90;;;;;;4985185;28;19913;-67
2021/12/20 04:50:55;;;;;;;;;;;3.30;98.00;;;;;;4985325;28;19906;-67
2021/12/20 04:53:20;;;;;;;;;;;3.30;98.00;;;;;;4983828;28;19914;-67
2021/12/20 04:55:46;;;;;;;;;;;3.30;98.00;;;;;;4984467;28;19906;-68
2021/12/20 04:58:12;;;;;;;;;;;3.30;98.00;;;;;;4984513;28;19910;-67
2021/12/20 05:00:40;;;;;;;;;;;3.30;98.00;;;;;;4984348;28;19952;-67
2021/12/20 05:03:06;;;;;;;;;;;3.30;98.00;;;;;;4984396;28;19910;-67
2021/12/20 05:05:32;;;;;;;;;;;3.40;97.90;;;;;;4983358;28;20224;-66
2021/12/20 05:07:57;;;;;;;;;;;3.30;97.80;;;;;;4983765;28;19944;-67
2021/12/20 05:10:27;;;;;;;;;;;3.30;97.90;;;;;;4984279;28;19906;-68
2021/12/20 05:12:57;;;;;;;;;;;3.20;97.90;;;;;;4983157;28;19906;-68
2021/12/20 05:15:23;;;;;;;;;;;3.20;98.00;;;;;;4982863;28;19913;-67
2021/12/20 05:17:49;;;;;;;;;;;3.10;98.10;;;;;;4982992;28;19968;-67
2021/12/20 05:20:15;;;;;;;;;;;3.00;98.20;;;;;;4984385;28;19906;-67
2021/12/20 05:22:40;;;;;;;;;;;3.00;98.20;;;;;;5002000;28;20205;-67
2021/12/20 05:25:06;;;;;;;;;;;2.90;98.20;;;;;;5002703;28;19906;-67
2021/12/20 05:27:32;;;;;;;;;;;2.90;98.30;;;;;;5003705;28;19913;-67
2021/12/20 05:30:00;;;;;;;;;;;2.80;98.30;;;;;;5003328;28;19926;-67
2021/12/20 05:32:26;;;;;;;;;;;2.80;98.30;;;;;;5003361;28;19944;-68
2021/12/20 05:34:51;;;;;;;;;;;2.70;98.40;;;;;;5001885;28;19906;-68
2021/12/20 05:37:17;;;;;;;;;;;2.70;98.40;;;;;;5003106;28;20213;-68
2021/12/20 05:39:44;;;;;;;;;;;2.70;98.50;;;;;;4988778;28;19914;-68
2021/12/20 05:42:10;;;;;;;;;;;2.70;98.50;;;;;;4983596;28;20255;-68
2021/12/20 05:44:35;;;;;;;;;;;2.60;98.50;;;;;;4980654;28;19906;-68
2021/12/20 05:47:01;;;;;;;;;;;2.60;98.50;;;;;;4983570;28;19945;-68
2021/12/20 05:49:27;;;;;;;;;;;2.50;98.50;;;;;;4983614;28;20078;-68
2021/12/20 05:51:53;;;;;;;;;;;2.50;98.60;;;;;;4983515;28;19913;-68
2021/12/20 05:54:18;;;;;;;;;;;2.40;98.70;;;;;;4982871;28;19914;-68
2021/12/20 05:56:44;;;;;;;;;;;2.40;98.80;;;;;;4983516;28;19918;-68
2021/12/20 05:59:09;;;;;;;;;;;2.30;98.80;;;;;;4983527;28;20117;-68
2021/12/20 06:01:35;;;;;;;;;;;2.30;98.90;;;;;;4983332;28;20026;-68
2021/12/20 06:04:01;;;;;;;;;;;2.30;98.80;;;;;;4983389;28;19913;-68
2021/12/20 06:06:28;;;;;;;;;;;2.30;98.90;;;;;;4982026;28;20197;-68
2021/12/20 06:08:54;;;;;;;;;;;2.20;98.90;;;;;;4983186;28;20269;-68
2021/12/20 06:11:20;;;;;;;;;;;2.20;99.00;;;;;;4982213;28;19914;-67
2021/12/20 06:13:45;;;;;;;;;;;2.10;99.00;;;;;;4987406;28;19906;-68
2021/12/20 06:16:11;;;;;;;;;;;2.10;99.00;;;;;;4987082;28;19941;-68
2021/12/20 06:18:37;;;;;;;;;;;2.00;99.10;;;;;;4987339;28;20100;-67
2021/12/20 06:21:03;;;;;;;;;;;2.00;99.10;;;;;;4987116;28;19910;-68
2021/12/20 06:23:28;;;;;;;;;;;1.90;99.20;;;;;;4987324;28;19950;-67
2021/12/20 06:25:54;;;;;;;;;;;1.90;99.30;;;;;;4986434;28;19976;-68
2021/12/20 06:28:20;;;;;;;;;;;1.90;99.30;;;;;;4992269;28;19916;-68
2021/12/20 06:30:47;;;;;;;;;;;1.90;99.30;;;;;;4989774;28;20236;-73
2021/12/20 06:33:13;;;;;;;;;;;1.90;99.40;;;;;;4985864;28;19909;-67
2021/12/20 06:35:38;;;;;;;;;;;1.90;99.40;;;;;;4986661;28;19936;-68
2021/12/20 06:38:06;;;;;;;;;;;1.90;99.40;;;;;;4985746;28;19925;-69
2021/12/20 06:40:32;;;;;;;;;;;1.90;99.40;;;;;;4986779;28;20236;-67
2021/12/20 06:42:58;;;;;;;;;;;1.80;99.40;;;;;;4986888;28;20201;-68
2021/12/20 06:45:24;;;;;;;;;;;1.90;99.30;;;;;;4985492;28;19941;-68
2021/12/20 06:47:50;;;;;;;;;;;1.90;99.30;;;;;;4986882;28;19906;-68
2021/12/20 06:50:15;;;;;;;;;;;1.80;99.30;;;;;;4986754;28;20197;-68
2021/12/20 06:52:41;;;;;;;;;;;1.80;99.40;;;;;;4986773;28;19906;-67
2021/12/20 06:55:09;;;;;;;;;;;1.80;99.30;;;;;;4986317;28;20119;-67
2021/12/20 06:57:35;;;;;;;;;;;1.80;99.40;;;;;;4986737;28;19910;-67
2021/12/20 07:00:01;;;;;;;;;;;1.80;99.30;;;;;;4985743;28;19913;-68
2021/12/20 07:02:28;;;;;;;;;;;1.80;99.30;;;;;;4986892;28;19906;-67
2021/12/20 07:04:54;;;;;;;;;;;1.70;99.30;;;;;;4986361;28;19914;-67
2021/12/20 07:07:19;;;;;;;;;;;1.70;99.30;;;;;;4986595;28;20144;-67
2021/12/20 07:09:45;;;;;;;;;;;1.70;99.30;;;;;;4985550;28;19906;-67
2021/12/20 07:12:11;;;;;;;;;;;1.70;99.30;;;;;;4986543;28;19906;-68
2021/12/20 07:14:37;;;;;;;;;;;1.70;99.30;;;;;;4986312;28;19906;-68
2021/12/20 07:17:03;;;;;;;;;;;1.70;99.30;;;;;;4986375;28;19910;-67
2021/12/20 07:19:29;;;;;;;;;;;1.70;99.30;;;;;;4986276;28;20204;-68
2021/12/20 07:21:54;;;;;;;;;;;1.60;99.30;;;;;;4986276;28;19977;-68
2021/12/20 07:24:20;;;;;;;;;;;1.60;99.30;;;;;;4985693;28;19906;-68
2021/12/20 07:26:46;;;;;;;;;;;1.60;99.20;;;;;;4985197;28;19906;-67
2021/12/20 07:29:11;;;;;;;;;;;1.60;99.20;;;;;;4986358;28;20330;-68
2021/12/20 07:31:37;;;;;;;;;;;1.60;99.20;;;;;;4986162;28;19906;-68
2021/12/20 07:34:04;;;;;;;;;;;1.60;99.30;;;;;;4986012;28;19913;-68
2021/12/20 07:36:29;;;;;;;;;;;1.60;99.10;;;;;;4985734;28;19914;-68
2021/12/20 07:38:56;;;;;;;;;;;1.60;99.10;;;;;;4985713;28;20131;-69
2021/12/20 07:41:22;;;;;;;;;;;1.60;99.00;;;;;;4985788;28;19910;-68
2021/12/20 07:43:49;;;;;;;;;;;1.60;99.00;;;;;;4985883;28;19905;-68
2021/12/20 07:46:16;;;;;;;;;;;1.50;98.80;;;;;;4985459;28;19983;-68
2021/12/20 07:48:42;;;;;;;;;;;1.50;98.80;;;;;;4968593;28;19948;-68
2021/12/20 07:51:07;;;;;;;;;;;1.40;98.80;;;;;;4985567;28;19906;-68
2021/12/20 07:53:33;;;;;;;;;;;1.40;98.80;;;;;;4985627;28;19906;-69
2021/12/20 07:55:59;;;;;;;;;;;1.40;98.80;;;;;;4985069;28;20208;-68
2021/12/20 07:58:25;;;;;;;;;;;1.40;98.90;;;;;;4985557;28;19917;-68
2021/12/20 08:00:50;;;;;;;;;;;1.30;99.00;;;;;;4985625;28;19906;-68
2021/12/20 08:03:17;;;;;;;;;;;1.30;99.00;;;;;;4985372;28;19912;-68
2021/12/20 08:05:43;;;;;;;;;;;1.30;98.90;;;;;;4984197;28;20082;-68
2021/12/20 08:08:08;;;;;;;;;;;1.30;99.00;;;;;;4968102;28;19973;-68
2021/12/20 08:10:34;;;;;;;;;;;1.20;99.00;;;;;;4985167;28;19914;-68
2021/12/20 08:13:00;;;;;;;;;;;1.30;99.00;;;;;;4985312;28;19913;-68
2021/12/20 08:15:28;;;;;;;;;;;1.30;99.00;;;;;;4985062;28;20090;-68
2021/12/20 08:17:54;;;;;;;;;;;1.30;99.10;;;;;;4987414;28;19941;-68
2021/12/20 08:20:20;;;;;;;;;;;1.40;99.00;;;;;;4985046;28;19909;-68
2021/12/20 08:22:46;;;;;;;;;;;1.30;98.90;;;;;;4967887;28;19913;-71
2021/12/20 08:25:12;;;;;;;;;;;1.40;99.00;;;;;;4999491;28;19906;-71
2021/12/20 08:27:38;;;;;;;;;;;1.40;98.90;;;;;;4984132;28;20199;-71
2021/12/20 08:30:05;;;;;;;;;;;1.40;98.90;;;;;;4985269;28;19929;-71
2021/12/20 08:32:31;;;;;;;;;;;1.50;98.90;;;;;;4984849;28;19941;-71
2021/12/20 08:34:56;;;;;;;;;;;1.50;98.90;;;;;;4984291;28;20090;-71
2021/12/20 08:37:22;;;;;;;;;;;1.50;98.90;;;;;;4999985;28;19910;-71
2021/12/20 08:39:48;;;;;;;;;;;1.50;98.90;;;;;;4984608;28;19921;-71
2021/12/20 08:42:13;;;;;;;;;;;1.60;98.80;;;;;;4983579;28;19992;-71
2021/12/20 08:44:39;;;;;;;;;;;1.60;98.80;;;;;;4984489;28;19969;-71
2021/12/20 08:47:05;;;;;;;;;;;1.70;98.70;;;;;;4983577;28;20205;-71
2021/12/20 08:49:31;;;;;;;;;;;1.70;98.50;;;;;;4984664;28;19906;-71
2021/12/20 08:51:57;;;;;;;;;;;1.80;98.40;;;;;;4984483;28;19945;-71
2021/12/20 08:54:28;;;;;;;;;;;1.70;98.40;;;;;;4982931;28;19913;-70
2021/12/20 08:56:55;;;;;;;;;;;1.80;98.50;;;;;;4983480;28;19918;-71
2021/12/20 08:59:21;;;;;;;;;;;1.80;98.30;;;;;;4984648;28;19981;-71
2021/12/20 09:01:46;;;;;;;;;;;1.80;98.30;;;;;;4984538;28;19913;-70
2021/12/20 09:04:12;;;;;;;;;;;2.00;97.90;;;;;;4983176;28;19906;-70
2021/12/20 09:06:39;;;;;;;;;;;2.00;98.00;;;;;;4984110;28;19945;-70
2021/12/20 09:09:07;;;;;;;;;;;2.00;97.70;;;;;;4983323;28;20121;-69
2021/12/20 09:11:33;;;;;;;;;;;2.00;97.90;;;;;;4983110;28;19939;-69
2021/12/20 09:13:58;;;;;;;;;;;2.00;98.00;;;;;;4983227;28;19906;-70
2021/12/20 09:16:24;;;;;;;;;;;2.10;97.70;;;;;;4982924;28;20235;-70
2021/12/20 09:18:50;;;;;;;;;;;2.30;97.20;;;;;;4984289;28;19945;-70
2021/12/20 09:21:16;;;;;;;;;;;2.20;97.40;;;;;;4983980;28;20125;-70
2021/12/20 09:23:42;;;;;;;;;;;2.30;97.60;;;;;;4984049;28;19917;-70
2021/12/20 09:26:07;;;;;;;;;;;2.30;97.50;;;;;;4982355;28;19906;-70
2021/12/20 09:28:34;;;;;;;;;;;2.30;97.30;;;;;;4984143;28;19936;-70
2021/12/20 09:31:00;;;;;;;;;;;2.40;97.40;;;;;;4982946;28;19918;-70
2021/12/20 09:33:25;;;;;;;;;;;2.60;96.70;;;;;;4966935;28;20158;-69
2021/12/20 09:35:52;;;;;;;;;;;2.70;96.50;;;;;;4983531;28;19917;-70
2021/12/20 09:38:19;;;;;;;;;;;2.80;96.30;;;;;;4982696;28;19937;-70
2021/12/20 09:41:59;;;;;;;;;;;2.90;96.40;;;;;;4983496;28;19906;-70
2021/12/20 09:43:33;;;;;;;;;;;2.90;96.40;;;;;;4985694;28;19906;-70
2021/12/20 09:45:59;;;;;;;;;;;3.10;96.10;;;;;;4981917;28;19921;-70
2021/12/20 09:48:25;;;;;;;;;;;3.20;96.00;;;;;;4983189;28;19906;-70
2021/12/20 09:50:50;;;;;;;;;;;3.40;95.80;;;;;;4982349;28;20109;-70
2021/12/20 09:53:16;;;;;;;;;;;3.50;95.50;;;;;;4983538;28;19913;-71
2021/12/20 09:55:48;;;;;;;;;;;3.60;95.10;;;;;;4983113;28;20125;-70
2021/12/20 09:58:14;;;;;;;;;;;3.80;94.80;;;;;;4974565;28;19918;-72
2021/12/20 10:00:40;;;;;;;;;;;4.00;94.40;;;;;;4974017;28;20017;-72
2021/12/20 10:03:06;;;;;;;;;;;4.20;94.00;;;;;;4983135;28;19905;-71
2021/12/20 10:05:32;;;;;;;;;;;4.40;93.80;;;;;;4982047;28;19981;-72
2021/12/20 10:07:58;;;;;;;;;;;4.60;93.20;;;;;;4983396;28;19906;-72
2021/12/20 10:10:39;;;;;;;;;;;4.80;92.30;;;;;;4982136;28;19976;-72
2021/12/20 10:13:05;;;;;;;;;;;5.00;91.70;;;;;;4983173;28;20094;-72
2021/12/20 10:15:36;;;;;;;;;;;5.30;91.50;;;;;;4983066;28;19973;-72
2021/12/20 10:18:02;;;;;;;;;;;5.50;90.50;;;;;;4983321;28;19910;-72
2021/12/20 10:20:29;;;;;;;;;;;5.80;90.00;;;;;;4983262;28;20220;-73
2021/12/20 10:23:13;;;;;;;;;;;6.10;89.40;;;;;;4982143;28;19914;-73
2021/12/20 10:25:40;;;;;;;;;;;6.30;86.60;;;;;;4981399;28;19965;-72
2021/12/20 10:28:09;;;;;;;;;;;6.40;84.40;;;;;;4981833;28;20239;-73
2021/12/20 10:30:43;;;;;;;;;;;6.80;83.60;;;;;;4970441;28;19945;-72
2021/12/20 10:33:17;;;;;;;;;;;7.00;81.30;;;;;;4966592;28;20160;-72
2021/12/20 10:35:50;;;;;;;;;;;7.50;79.30;;;;;;4983042;28;19906;-72
2021/12/20 10:38:28;;;;;;;;;;;8.00;75.80;;;;;;4982864;28;19917;-73
2021/12/20 10:41:01;;;;;;;;;;;9.40;70.40;;;;;;4982876;28;19914;-73
2021/12/20 10:43:40;;;;;;;;;;;10.50;63.40;;;;;;4983169;28;20141;-73
2021/12/20 10:46:12;;;;;;;;;;;11.80;59.80;;;;;;4982038;28;19913;-71
2021/12/20 10:48:38;;;;;;;;;;;13.20;55.30;;;;;;4982911;28;19906;-73
2021/12/20 10:51:04;;;;;;;;;;;13.90;50.80;;;;;;4982848;28;19964;-73
2021/12/20 10:53:29;;;;;;;;;;;14.50;49.60;;;;;;4983059;28;19922;-73
2021/12/20 10:55:57;;;;;;;;;;;14.80;47.10;;;;;;4982603;28;19961;-73
2021/12/20 10:58:28;;;;;;;;;;;14.90;46.50;;;;;;4984387;28;19917;-74
2021/12/20 11:01:15;;;;;;;;;;;14.40;47.20;;;;;;4983922;28;19960;-73
2021/12/20 11:03:43;;;;;;;;;;;14.20;46.40;;;;;;4986799;28;19905;-72
2021/12/20 11:11:28;;;;;;;;;;;13.40;46.60;;;;;;4985573;28;19977;-72
2021/12/20 11:13:54;;;;;;;;;;;13.20;46.60;;;;;;4985279;28;20213;-73
2021/12/20 11:16:39;;;;;;;;;;;12.80;47.80;;;;;;4986148;28;19909;-73
2021/12/20 11:19:15;;;;;;;;;;;12.40;48.80;;;;;;4986333;28;19906;-72
2021/12/20 11:22:03;;;;;;;;;;;12.30;49.90;;;;;;4985060;28;19910;-72
2021/12/20 11:24:32;;;;;;;;;;;11.70;47.00;;;;;;4985805;28;19921;-73
2021/12/20 11:26:58;;;;;;;;;;;11.50;48.20;;;;;;4986034;28;20220;-72
2021/12/20 11:29:24;;;;;;;;;;;11.00;49.30;;;;;;4986128;28;19925;-72
2021/12/20 11:31:50;;;;;;;;;;;10.90;49.80;;;;;;4986058;28;19973;-72
2021/12/20 11:34:16;;;;;;;;;;;10.90;50.10;;;;;;4985722;28;19906;-73
2021/12/20 11:36:41;;;;;;;;;;;10.70;46.70;;;;;;4985863;28;20232;-73
2021/12/20 11:39:07;;;;;;;;;;;10.60;45.20;;;;;;4985215;28;19906;-72
2021/12/20 11:41:33;;;;;;;;;;;9.70;48.20;;;;;;4985961;28;20145;-72
2021/12/20 11:43:59;;;;;;;;;;;9.50;49.80;;;;;;4999958;28;19913;-72
2021/12/20 11:46:30;;;;;;;;;;;9.30;49.80;;;;;;5004103;28;20201;-72
2021/12/20 11:48:56;;;;;;;;;;;9.00;49.00;;;;;;5003851;28;19967;-71
2021/12/20 11:51:22;;;;;;;;;;;8.90;50.30;;;;;;5005143;28;19905;-73
2021/12/20 11:53:47;;;;;;;;;;;9.10;49.50;;;;;;5005300;28;19906;-72
2021/12/20 11:56:13;;;;;;;;;;;8.90;50.10;;;;;;5003515;28;19906;-72
2021/12/20 11:58:45;;;;;;;;;;;8.60;51.30;;;;;;5005058;28;20208;-72
2021/12/20 12:01:15;;;;;;;;;;;8.70;51.70;;;;;;5005201;28;20304;-72
2021/12/20 12:03:52;;;;;;;;;;;9.30;49.90;;;;;;4989598;28;19937;-72
2021/12/20 12:06:29;;;;;;;;;;;8.90;52.20;;;;;;4969071;28;19957;-72
2021/12/20 12:08:59;;;;;;;;;;;9.20;52.00;;;;;;4982797;28;19913;-72
2021/12/20 12:11:25;;;;;;;;;;;9.40;51.50;;;;;;4983722;28;19906;-72
2021/12/20 12:14:07;;;;;;;;;;;9.90;49.40;;;;;;4985257;28;19952;-74
2021/12/20 12:17:00;;;;;;;;;;;10.00;49.50;;;;;;4985058;28;19914;-72
2021/12/20 12:19:37;;;;;;;;;;;10.90;47.70;;;;;;4984070;28;19906;-72
2021/12/20 12:22:03;;;;;;;;;;;11.00;48.10;;;;;;4983967;28;19909;-73
2021/12/20 12:24:47;;;;;;;;;;;12.30;45.80;;;;;;4984624;28;19906;-72
2021/12/20 12:27:29;;;;;;;;;;;12.90;42.30;;;;;;4983912;28;19968;-74
2021/12/20 12:30:13;;;;;;;;;;;12.90;41.20;;;;;;4985078;28;19913;-72
2021/12/20 12:32:48;;;;;;;;;;;13.20;41.60;;;;;;4984785;28;19985;-73
2021/12/20 12:35:39;;;;;;;;;;;13.70;39.70;;;;;;4984846;28;20171;-72
2021/12/20 12:38:25;;;;;;;;;;;13.40;39.20;;;;;;4984737;28;20187;-72
2021/12/20 12:41:13;;;;;;;;;;;12.40;40.80;;;;;;4984477;28;19972;-72
2021/12/20 12:43:47;;;;;;;;;;;11.50;41.60;;;;;;4983681;28;20379;-72
2021/12/20 12:46:13;;;;;;;;;;;10.60;43.20;;;;;;4984423;28;19906;-72
2021/12/20 12:48:49;;;;;;;;;;;9.50;45.70;;;;;;4984755;28;19914;-73
2021/12/20 12:51:38;;;;;;;;;;;8.70;47.90;;;;;;4985042;28;19940;-72
2021/12/20 12:54:04;;;;;;;;;;;8.10;50.20;;;;;;4983271;28;19920;-73
2021/12/20 12:56:30;;;;;;;;;;;7.60;52.60;;;;;;4984509;28;19906;-71
2021/12/20 12:59:19;;;;;;;;;;;7.40;53.10;;;;;;4983669;28;20113;-71
2021/12/20 13:01:54;;;;;;;;;;;7.10;54.10;;;;;;4984900;28;19906;-72
2021/12/20 13:04:20;;;;;;;;;;;7.00;54.30;;;;;;4984200;28;19906;-70
2021/12/20 13:06:46;;;;;;;;;;;6.50;56.60;;;;;;4983387;28;19944;-74
2021/12/20 13:09:11;;;;;;;;;;;6.20;56.80;;;;;;4983238;28;19952;-73
2021/12/20 13:11:37;;;;;;;;;;;6.00;57.60;;;;;;4984277;28;19912;-72
2021/12/20 13:14:14;;;;;;;;;;;5.80;58.50;;;;;;4982988;28;20259;-72
2021/12/20 13:17:01;;;;;;;;;;;5.60;59.70;;;;;;4984043;28;19981;-73
2021/12/20 13:19:32;;;;;;;;;;;5.60;59.30;;;;;;4982951;28;20209;-74
2021/12/20 13:22:02;;;;;;;;;;;5.40;59.50;;;;;;4982934;28;19913;-72
2021/12/20 13:24:29;;;;;;;;;;;5.30;58.30;;;;;;4983614;28;19906;-73
2021/12/20 13:27:05;;;;;;;;;;;5.20;59.20;;;;;;4984022;28;19952;-73
2021/12/20 13:29:30;;;;;;;;;;;5.00;59.50;;;;;;4983110;28;19914;-72
2021/12/20 13:32:06;;;;;;;;;;;5.00;60.70;;;;;;4982737;28;19929;-72
2021/12/20 13:34:32;;;;;;;;;;;4.80;62.20;;;;;;4982491;28;19906;-72
2021/12/20 13:37:06;;;;;;;;;;;4.80;62.20;;;;;;4977701;28;19925;-65
2021/12/20 13:39:32;;;;;;;;;;;4.70;62.90;;;;;;4973636;28;19952;-71
2021/12/20 13:42:06;;;;;;;;;;;4.70;63.10;;;;;;4979253;28;20189;-72
2021/12/20 13:44:32;;;;;;;;;;;4.60;63.30;;;;;;4964423;28;19906;-72
2021/12/20 13:47:01;;;;;;;;;;;4.60;64.40;;;;;;4964490;29;19954;-71
2021/12/20 13:49:27;;;;;;;;;;;4.50;64.40;;;;;;4964060;28;19952;-70
2021/12/20 13:51:57;;;;;;;;;;;4.50;64.60;;;;;;4963043;29;19914;-70
2021/12/20 13:54:39;;;;;;;;;;;4.50;62.90;;;;;;4963963;28;19910;-70
2021/12/20 13:57:16;;;;;;;;;;;4.40;63.90;;;;;;4964311;29;19918;-70
2021/12/20 13:59:54;;;;;;;;;;;4.40;65.60;;;;;;4948905;29;19906;-72
2021/12/20 14:02:20;;;;;;;;;;;4.30;66.50;;;;;;4964131;28;19921;-72
2021/12/20 14:04:48;;;;;;;;;;;4.40;66.40;;;;;;4965057;28;19945;-74
2021/12/20 14:07:27;;;;;;;;;;;4.30;66.80;;;;;;4982580;28;20001;-70
2021/12/20 14:10:12;;;;;;;;;;;4.40;67.10;;;;;;4981085;28;19913;-70
2021/12/20 14:12:45;;;;;;;;;;;4.30;68.00;;;;;;4982016;28;19959;-71
2021/12/20 14:15:25;;;;;;;;;;;4.20;67.60;;;;;;4982951;28;20011;-70
2021/12/20 14:18:00;;;;;;;;;;;4.20;67.70;;;;;;4983243;28;19916;-71
2021/12/20 14:20:43;;;;;;;;;;;4.10;68.90;;;;;;4983426;28;19913;-71
2021/12/20 14:23:14;;;;;;;;;;;4.10;69.80;;;;;;4982880;28;19905;-71
2021/12/20 14:25:44;;;;;;;;;;;4.00;70.50;;;;;;4982613;28;19910;-70
2021/12/20 14:28:13;;;;;;;;;;;4.00;70.90;;;;;;4982645;28;19913;-70
2021/12/20 14:30:43;;;;;;;;;;;4.00;71.10;;;;;;4982967;28;19949;-75
2021/12/20 14:33:34;;;;;;;;;;;4.00;70.40;;;;;;4984173;28;19920;-75
2021/12/20 14:36:11;;;;;;;;;;;3.90;70.30;;;;;;4986193;28;19906;-71
2021/12/20 14:38:44;;;;;;;;;;;3.90;70.30;;;;;;4986950;28;19933;-73
2021/12/20 14:41:16;;;;;;;;;;;3.80;70.90;;;;;;4975288;28;19935;-71
2021/12/20 14:43:42;;;;;;;;;;;3.80;70.70;;;;;;4986594;28;20223;-71
2021/12/20 14:46:29;;;;;;;;;;;3.80;71.20;;;;;;4986348;28;19953;-71
2021/12/20 14:49:02;;;;;;;;;;;3.80;71.40;;;;;;4985118;28;19918;-72
2021/12/20 14:51:28;;;;;;;;;;;3.70;72.20;;;;;;4986522;28;19949;-73
2021/12/20 14:54:23;;;;;;;;;;;3.60;72.90;;;;;;4969128;28;19937;-73